Time;durP1;ratioP1;P1;durP2;ratioP2;P2;SDS_P1;SDS_P2;PMS_P1;PMS_P2;Temp;Humidity;BMP_temperature;BMP_pressure;BME280_temperature;BME280_humidity;BME280_pressure;Samples;Min_cycle;Max_cycle;Signal;HPM_P1;HPM_P2
2022/01/02 00:01:57;;;;;;;8.73;5.77;;;;;;;;;;5013517;28;20233;-71
2022/01/02 00:04:28;;;;;;;9.37;5.30;;;;;;;;;;5014609;28;20214;-71
2022/01/02 00:06:54;;;;;;;10.80;6.10;;;;;;;;;;5013248;28;20265;-71
2022/01/02 00:09:31;;;;;;;7.17;5.00;;;;;;;;;;5012671;28;20566;-70
2022/01/02 00:12:04;;;;;;;7.73;5.10;;;;;;;;;;5013162;28;20305;-71
2022/01/02 00:14:34;;;;;;;7.63;5.73;;;;;;;;;;5011105;28;20214;-71
2022/01/02 00:17:02;;;;;;;6.97;5.27;;;;;;;;;;5012182;28;20227;-71
2022/01/02 00:19:31;;;;;;;8.80;5.10;;;;;;;;;;5014260;28;20310;-71
2022/01/02 00:22:01;;;;;;;7.70;5.60;;;;;;;;;;5012262;28;20232;-70
2022/01/02 00:24:29;;;;;;;6.80;5.27;;;;;;;;;;5013832;28;20246;-71
2022/01/02 00:26:57;;;;;;;6.70;5.53;;;;;;;;;;5012683;28;20689;-70
2022/01/02 00:29:24;;;;;;;7.87;5.30;;;;;;;;;;5013315;28;20218;-71
2022/01/02 00:31:52;;;;;;;10.13;5.70;;;;;;;;;;5012309;28;20641;-71
2022/01/02 00:34:19;;;;;;;8.43;6.37;;;;;;;;;;5011343;28;20796;-71
2022/01/02 00:36:47;;;;;;;8.33;5.87;;;;;;;;;;5013277;28;20258;-71
2022/01/02 00:39:13;;;;;;;7.17;5.80;;;;;;;;;;5013041;28;20266;-70
2022/01/02 00:41:43;;;;;;;9.47;7.20;;;;;;;;;;5013189;28;20816;-70
2022/01/02 00:44:18;;;;;;;8.73;6.80;;;;;;;;;;5014707;28;20496;-71
2022/01/02 00:46:58;;;;;;;10.27;7.23;;;;;;;;;;5011594;28;20238;-71
2022/01/02 00:49:26;;;;;;;7.93;5.87;;;;;;;;;;5011657;28;20779;-71
2022/01/02 00:52:02;;;;;;;7.03;5.60;;;;;;;;;;5013566;28;20219;-71
2022/01/02 00:54:30;;;;;;;10.63;6.50;;;;;;;;;;5011141;28;20380;-71
2022/01/02 00:57:03;;;;;;;9.10;5.93;;;;;;;;;;5013093;28;20208;-71
2022/01/02 00:59:35;;;;;;;6.90;5.83;;;;;;;;;;5013221;28;20248;-71
2022/01/02 01:02:04;;;;;;;7.10;5.60;;;;;;;;;;5012368;28;20647;-71
2022/01/02 01:04:32;;;;;;;7.43;5.90;;;;;;;;;;5013311;28;20210;-71
2022/01/02 01:07:05;;;;;;;10.37;6.13;;;;;;;;;;5011205;28;20223;-71
2022/01/02 01:09:32;;;;;;;8.97;6.17;;;;;;;;;;5013020;28;20219;-71
2022/01/02 01:12:00;;;;;;;11.13;6.57;;;;;;;;;;5013313;28;20214;-71
2022/01/02 01:14:28;;;;;;;8.17;5.67;;;;;;;;;;5010304;28;20950;-71
2022/01/02 01:16:54;;;;;;;12.30;6.47;;;;;;;;;;5014464;28;20231;-71
2022/01/02 01:19:22;;;;;;;8.53;4.73;;;;;;;;;;5011331;28;20586;-71
2022/01/02 01:21:49;;;;;;;7.90;5.43;;;;;;;;;;5013407;28;20309;-71
2022/01/02 01:24:18;;;;;;;11.10;5.97;;;;;;;;;;5010551;28;20320;-71
2022/01/02 01:26:46;;;;;;;9.13;6.07;;;;;;;;;;5009728;28;20239;-71
2022/01/02 01:29:13;;;;;;;9.57;6.20;;;;;;;;;;5013461;28;20637;-71
2022/01/02 01:31:39;;;;;;;7.93;5.60;;;;;;;;;;5012554;28;20226;-71
2022/01/02 01:34:06;;;;;;;8.40;6.20;;;;;;;;;;5012085;28;20269;-71
2022/01/02 01:36:32;;;;;;;10.27;6.53;;;;;;;;;;5013076;28;20218;-71
2022/01/02 01:38:59;;;;;;;10.50;6.40;;;;;;;;;;5010047;28;20276;-71
2022/01/02 01:41:30;;;;;;;11.53;6.00;;;;;;;;;;5012864;28;20230;-71
2022/01/02 01:44:07;;;;;;;10.13;6.13;;;;;;;;;;5012060;28;20217;-71
2022/01/02 01:46:37;;;;;;;8.20;5.37;;;;;;;;;;5010849;28;20617;-71
2022/01/02 01:49:14;;;;;;;10.47;6.83;;;;;;;;;;5012896;28;20309;-72
2022/01/02 01:51:41;;;;;;;10.20;6.70;;;;;;;;;;5010363;28;20218;-71
2022/01/02 01:54:07;;;;;;;12.03;6.23;;;;;;;;;;5012550;28;20280;-71
2022/01/02 01:56:35;;;;;;;9.87;6.63;;;;;;;;;;5013487;28;21065;-71
2022/01/02 01:59:04;;;;;;;10.77;6.47;;;;;;;;;;5010613;28;21111;-70
2022/01/02 02:01:31;;;;;;;10.47;4.70;;;;;;;;;;5013006;28;20256;-71
2022/01/02 02:03:58;;;;;;;8.67;5.90;;;;;;;;;;5011295;28;20806;-71
2022/01/02 02:06:25;;;;;;;8.30;6.07;;;;;;;;;;5010872;28;20257;-71
2022/01/02 02:08:54;;;;;;;9.97;5.60;;;;;;;;;;5011611;28;20281;-71
2022/01/02 02:11:22;;;;;;;11.00;5.80;;;;;;;;;;5010793;28;20234;-71
2022/01/02 02:13:50;;;;;;;12.17;6.10;;;;;;;;;;5012051;28;20219;-70
2022/01/02 02:16:16;;;;;;;10.90;6.33;;;;;;;;;;5011933;28;20260;-71
2022/01/02 02:18:43;;;;;;;11.70;6.67;;;;;;;;;;5011571;28;20257;-70
2022/01/02 02:21:11;;;;;;;11.67;6.90;;;;;;;;;;5012880;28;20209;-70
2022/01/02 02:23:37;;;;;;;10.90;6.37;;;;;;;;;;5008801;28;20612;-70
2022/01/02 02:26:03;;;;;;;11.17;6.27;;;;;;;;;;5011269;28;20231;-70
2022/01/02 02:28:30;;;;;;;10.27;5.53;;;;;;;;;;5012191;28;20231;-70
2022/01/02 02:30:56;;;;;;;12.67;6.20;;;;;;;;;;5013847;28;20216;-70
2022/01/02 02:33:23;;;;;;;13.00;5.60;;;;;;;;;;5015953;28;20737;-70
2022/01/02 02:35:50;;;;;;;15.00;6.80;;;;;;;;;;5014796;28;20710;-71
2022/01/02 02:38:19;;;;;;;10.20;5.50;;;;;;;;;;5014934;28;20216;-70
2022/01/02 02:40:46;;;;;;;8.07;6.13;;;;;;;;;;5017010;28;20277;-70
2022/01/02 02:43:25;;;;;;;8.93;5.33;;;;;;;;;;5013906;28;20271;-71
2022/01/02 02:51:27;;;;;;;10.63;5.77;;;;;;;;;;5014696;28;20945;-70
2022/01/02 02:53:55;;;;;;;8.20;4.97;;;;;;;;;;5014998;28;20702;-70
2022/01/02 02:56:24;;;;;;;8.57;5.23;;;;;;;;;;5015160;28;20355;-70
2022/01/02 02:58:55;;;;;;;8.13;5.17;;;;;;;;;;5014739;28;20208;-70
2022/01/02 03:01:23;;;;;;;8.60;5.00;;;;;;;;;;5015992;28;20230;-70
2022/01/02 03:03:49;;;;;;;10.50;5.27;;;;;;;;;;5014253;28;20690;-70
2022/01/02 03:06:16;;;;;;;10.53;5.27;;;;;;;;;;5014630;28;20216;-70
2022/01/02 03:08:45;;;;;;;9.97;5.50;;;;;;;;;;5014026;28;20223;-70
2022/01/02 03:11:15;;;;;;;8.00;4.87;;;;;;;;;;5014883;28;20238;-70
2022/01/02 03:13:42;;;;;;;13.30;6.47;;;;;;;;;;5014677;28;20717;-70
2022/01/02 03:16:09;;;;;;;9.73;5.10;;;;;;;;;;5012497;28;20269;-70
2022/01/02 03:18:36;;;;;;;12.80;5.00;;;;;;;;;;5013660;28;20218;-70
2022/01/02 03:21:03;;;;;;;10.30;4.77;;;;;;;;;;5014784;28;20215;-70
2022/01/02 03:23:30;;;;;;;12.77;5.17;;;;;;;;;;5013742;28;20251;-69
2022/01/02 03:25:57;;;;;;;12.37;5.33;;;;;;;;;;5015127;28;20223;-70
2022/01/02 03:28:25;;;;;;;9.00;4.30;;;;;;;;;;5012481;28;20203;-70
2022/01/02 03:30:52;;;;;;;12.73;5.30;;;;;;;;;;5014537;28;20658;-69
2022/01/02 03:33:19;;;;;;;9.73;5.00;;;;;;;;;;5014020;28;20261;-70
2022/01/02 03:35:45;;;;;;;7.03;4.33;;;;;;;;;;5013992;28;20262;-70
2022/01/02 03:38:12;;;;;;;10.30;4.70;;;;;;;;;;5014619;28;20375;-70
2022/01/02 03:40:38;;;;;;;10.50;4.53;;;;;;;;;;5014799;28;20285;-69
2022/01/02 03:43:05;;;;;;;9.63;3.87;;;;;;;;;;5013516;28;20366;-69
2022/01/02 03:45:33;;;;;;;8.20;4.07;;;;;;;;;;5015758;28;20288;-69
2022/01/02 03:47:59;;;;;;;9.60;4.50;;;;;;;;;;5013204;28;20373;-69
2022/01/02 03:50:26;;;;;;;9.70;3.87;;;;;;;;;;5015391;28;20272;-69
2022/01/02 03:52:52;;;;;;;7.43;3.90;;;;;;;;;;5013815;28;20624;-70
2022/01/02 03:55:19;;;;;;;5.67;3.17;;;;;;;;;;5013497;28;20236;-70
2022/01/02 03:57:45;;;;;;;6.47;3.10;;;;;;;;;;5014473;28;20219;-70
2022/01/02 04:00:14;;;;;;;9.77;3.60;;;;;;;;;;5013449;28;20219;-69
2022/01/02 04:02:42;;;;;;;7.73;3.37;;;;;;;;;;5013233;28;20239;-70
2022/01/02 04:05:10;;;;;;;8.40;3.07;;;;;;;;;;5014778;28;20211;-70
2022/01/02 04:07:37;;;;;;;6.43;2.77;;;;;;;;;;5012336;28;20246;-70
2022/01/02 04:10:06;;;;;;;5.83;3.00;;;;;;;;;;5012551;28;20766;-69
2022/01/02 04:12:32;;;;;;;9.53;3.10;;;;;;;;;;5011305;28;20222;-69
2022/01/02 04:14:59;;;;;;;8.10;3.20;;;;;;;;;;5014989;28;20215;-70
2022/01/02 04:17:26;;;;;;;9.47;3.27;;;;;;;;;;5012069;28;20278;-69
2022/01/02 04:19:53;;;;;;;7.63;2.90;;;;;;;;;;5012633;28;20220;-69
2022/01/02 04:22:20;;;;;;;8.53;3.30;;;;;;;;;;5013316;28;20483;-69
2022/01/02 04:24:47;;;;;;;8.90;3.40;;;;;;;;;;5010673;28;20297;-70
2022/01/02 04:27:14;;;;;;;9.87;3.07;;;;;;;;;;5014566;28;20752;-70
2022/01/02 04:29:40;;;;;;;5.40;2.80;;;;;;;;;;5012491;28;20266;-70
2022/01/02 04:32:07;;;;;;;6.07;2.90;;;;;;;;;;5011556;28;20228;-70
2022/01/02 04:34:33;;;;;;;6.90;3.33;;;;;;;;;;5013262;28;20250;-70
2022/01/02 04:37:01;;;;;;;9.10;3.50;;;;;;;;;;5010898;28;20262;-71
2022/01/02 04:39:27;;;;;;;8.37;3.20;;;;;;;;;;5011377;28;20663;-71
2022/01/02 04:41:54;;;;;;;6.50;3.30;;;;;;;;;;5012952;28;20668;-70
2022/01/02 04:44:20;;;;;;;9.67;3.50;;;;;;;;;;5011687;28;20286;-70
2022/01/02 04:46:47;;;;;;;5.20;2.97;;;;;;;;;;5014565;28;20289;-70
2022/01/02 04:49:13;;;;;;;9.20;3.80;;;;;;;;;;5011024;28;20285;-71
2022/01/02 04:51:40;;;;;;;10.10;2.97;;;;;;;;;;5013068;28;20569;-70
2022/01/02 04:54:07;;;;;;;7.77;3.33;;;;;;;;;;5012398;28;20212;-70
2022/01/02 04:56:34;;;;;;;11.70;4.03;;;;;;;;;;5012120;28;20682;-70
2022/01/02 04:59:00;;;;;;;8.50;3.57;;;;;;;;;;5014457;28;20769;-70
2022/01/02 05:01:27;;;;;;;11.23;4.10;;;;;;;;;;5011712;28;20368;-71
2022/01/02 05:03:53;;;;;;;8.20;3.40;;;;;;;;;;5012682;28;20596;-70
2022/01/02 05:06:20;;;;;;;9.83;3.80;;;;;;;;;;5013311;28;20223;-70
2022/01/02 05:08:47;;;;;;;8.50;3.33;;;;;;;;;;5011798;28;20609;-70
2022/01/02 05:11:15;;;;;;;9.00;3.67;;;;;;;;;;5010789;28;20232;-70
2022/01/02 05:13:41;;;;;;;10.80;3.43;;;;;;;;;;5011228;28;20223;-70
2022/01/02 05:16:08;;;;;;;8.10;3.50;;;;;;;;;;5012028;28;20289;-70
2022/01/02 05:18:34;;;;;;;5.97;3.10;;;;;;;;;;5013885;28;20221;-70
2022/01/02 05:21:01;;;;;;;6.43;3.30;;;;;;;;;;5012733;28;20389;-70
2022/01/02 05:23:29;;;;;;;6.43;2.63;;;;;;;;;;5012060;28;20273;-70
2022/01/02 05:25:55;;;;;;;5.40;2.80;;;;;;;;;;5010810;28;20222;-70
2022/01/02 05:28:24;;;;;;;8.17;3.60;;;;;;;;;;5011637;28;20215;-70
2022/01/02 05:30:52;;;;;;;8.25;4.00;;;;;;;;;;5013208;28;20447;-74
2022/01/02 05:33:18;;;;;;;6.87;2.80;;;;;;;;;;5010995;28;20254;-74
2022/01/02 05:35:45;;;;;;;7.80;3.70;;;;;;;;;;5012168;28;20633;-74
2022/01/02 05:38:11;;;;;;;5.57;3.23;;;;;;;;;;5011967;28;20231;-74
2022/01/02 05:40:38;;;;;;;7.17;3.10;;;;;;;;;;5012239;28;20231;-74
2022/01/02 05:43:06;;;;;;;10.67;3.03;;;;;;;;;;5012987;28;20280;-74
2022/01/02 05:45:34;;;;;;;5.73;2.90;;;;;;;;;;5011974;28;20481;-74
2022/01/02 05:48:02;;;;;;;9.10;3.27;;;;;;;;;;5012310;28;20227;-74
2022/01/02 05:50:29;;;;;;;8.23;3.77;;;;;;;;;;5013754;28;20214;-74
2022/01/02 05:52:55;;;;;;;8.53;3.43;;;;;;;;;;5012134;28;20266;-74
2022/01/02 05:55:22;;;;;;;6.50;2.80;;;;;;;;;;5012825;28;20795;-73
2022/01/02 05:57:48;;;;;;;9.43;2.90;;;;;;;;;;5011849;28;20231;-74
2022/01/02 06:00:15;;;;;;;6.00;2.90;;;;;;;;;;5011852;28;20219;-74
2022/01/02 06:02:43;;;;;;;6.63;2.53;;;;;;;;;;5012618;28;20238;-74
2022/01/02 06:05:09;;;;;;;5.07;2.60;;;;;;;;;;5012503;28;20356;-74
2022/01/02 06:07:36;;;;;;;6.60;2.67;;;;;;;;;;5018371;28;20222;-74
2022/01/02 06:10:03;;;;;;;6.60;2.60;;;;;;;;;;5015301;28;20220;-74
2022/01/02 06:12:30;;;;;;;7.77;2.83;;;;;;;;;;5015580;28;20690;-74
2022/01/02 06:14:56;;;;;;;4.03;2.10;;;;;;;;;;5017697;28;20215;-74
2022/01/02 06:17:23;;;;;;;8.33;2.87;;;;;;;;;;5014386;28;20591;-74
2022/01/02 06:19:50;;;;;;;4.60;2.63;;;;;;;;;;5016739;28;20210;-74
2022/01/02 06:22:17;;;;;;;7.13;2.43;;;;;;;;;;5009126;28;20272;-74
2022/01/02 06:24:43;;;;;;;3.87;2.67;;;;;;;;;;5014642;28;20250;-74
2022/01/02 06:27:10;;;;;;;5.77;2.47;;;;;;;;;;5014425;28;20679;-74
2022/01/02 06:29:36;;;;;;;6.40;2.80;;;;;;;;;;5016640;28;20208;-74
2022/01/02 06:32:03;;;;;;;3.83;2.47;;;;;;;;;;5015085;28;20313;-74
2022/01/02 06:34:30;;;;;;;5.47;2.97;;;;;;;;;;5015318;28;20265;-75
2022/01/02 06:36:58;;;;;;;4.67;2.70;;;;;;;;;;5014919;28;20301;-75
2022/01/02 06:39:24;;;;;;;6.20;2.90;;;;;;;;;;5014827;28;20687;-74
2022/01/02 06:41:51;;;;;;;7.23;2.70;;;;;;;;;;5015469;28;20238;-75
2022/01/02 06:44:18;;;;;;;5.53;3.07;;;;;;;;;;5013822;28;20401;-75
2022/01/02 06:46:44;;;;;;;8.50;3.30;;;;;;;;;;5016114;28;20285;-75
2022/01/02 06:49:10;;;;;;;6.30;3.20;;;;;;;;;;5016045;28;20222;-75
2022/01/02 06:51:37;;;;;;;5.73;3.70;;;;;;;;;;5017253;28;20670;-75
2022/01/02 06:54:05;;;;;;;6.70;3.27;;;;;;;;;;5015986;28;20217;-75
2022/01/02 06:56:31;;;;;;;8.67;2.97;;;;;;;;;;5013020;28;20258;-74
2022/01/02 06:58:58;;;;;;;4.77;3.17;;;;;;;;;;5014054;28;20241;-74
2022/01/02 07:01:24;;;;;;;7.97;3.57;;;;;;;;;;5013781;28;20235;-74
2022/01/02 07:03:51;;;;;;;6.40;3.50;;;;;;;;;;5014422;28;20227;-74
2022/01/02 07:06:18;;;;;;;7.70;3.00;;;;;;;;;;5013786;28;20214;-74
2022/01/02 07:08:44;;;;;;;5.30;3.40;;;;;;;;;;5012854;28;20215;-74
2022/01/02 07:11:12;;;;;;;7.20;3.10;;;;;;;;;;5015045;28;20235;-74
2022/01/02 07:13:40;;;;;;;5.27;3.63;;;;;;;;;;5012208;28;20227;-74
2022/01/02 07:16:06;;;;;;;5.90;3.50;;;;;;;;;;5012162;28;20208;-74
2022/01/02 07:18:32;;;;;;;5.20;2.87;;;;;;;;;;5012637;28;20222;-75
2022/01/02 07:20:59;;;;;;;5.20;2.73;;;;;;;;;;5013960;28;20210;-75
2022/01/02 07:23:25;;;;;;;6.50;3.13;;;;;;;;;;5011726;28;20289;-75
2022/01/02 07:25:52;;;;;;;8.73;3.33;;;;;;;;;;5012485;28;20321;-75
2022/01/02 07:28:21;;;;;;;5.50;3.50;;;;;;;;;;5010391;28;20211;-76
2022/01/02 07:30:47;;;;;;;5.53;2.90;;;;;;;;;;5013608;28;20681;-75
2022/01/02 07:33:14;;;;;;;7.23;3.30;;;;;;;;;;5012692;28;20234;-75
2022/01/02 07:35:40;;;;;;;6.23;3.40;;;;;;;;;;5014375;28;20218;-75
2022/01/02 07:38:06;;;;;;;5.30;3.37;;;;;;;;;;5012462;28;20226;-75
2022/01/02 07:40:33;;;;;;;5.73;3.57;;;;;;;;;;5011169;28;20336;-75
2022/01/02 07:43:00;;;;;;;5.70;3.43;;;;;;;;;;5014273;28;20782;-75
2022/01/02 07:45:28;;;;;;;6.20;3.10;;;;;;;;;;5011416;28;20223;-75
2022/01/02 07:47:54;;;;;;;6.00;3.13;;;;;;;;;;5013175;28;20288;-75
2022/01/02 07:50:22;;;;;;;5.47;2.90;;;;;;;;;;5010421;28;20219;-75
2022/01/02 07:52:48;;;;;;;8.33;3.23;;;;;;;;;;5014270;28;20223;-75
2022/01/02 07:55:15;;;;;;;7.57;3.37;;;;;;;;;;5009108;28;20261;-75
2022/01/02 07:57:42;;;;;;;5.50;3.30;;;;;;;;;;5014105;28;20215;-75
2022/01/02 08:00:09;;;;;;;8.63;3.10;;;;;;;;;;5011667;28;20211;-75
2022/01/02 08:02:37;;;;;;;7.37;3.47;;;;;;;;;;5011316;28;20226;-75
2022/01/02 08:05:04;;;;;;;5.73;2.97;;;;;;;;;;5011752;28;20226;-75
2022/01/02 08:07:31;;;;;;;5.37;3.07;;;;;;;;;;5011869;28;20250;-76
2022/01/02 08:09:57;;;;;;;5.00;3.07;;;;;;;;;;5011192;28;20736;-75
2022/01/02 08:12:24;;;;;;;6.70;2.80;;;;;;;;;;5009835;28;20208;-75
2022/01/02 08:14:50;;;;;;;5.67;2.77;;;;;;;;;;5011016;28;20256;-75
2022/01/02 08:17:17;;;;;;;4.20;2.60;;;;;;;;;;5010709;28;20231;-75
2022/01/02 08:19:44;;;;;;;4.60;2.93;;;;;;;;;;5009753;28;20270;-75
2022/01/02 08:22:11;;;;;;;3.73;2.90;;;;;;;;;;5010744;28;20223;-75
2022/01/02 08:24:37;;;;;;;3.67;2.73;;;;;;;;;;5006535;28;20297;-75
2022/01/02 08:27:04;;;;;;;5.37;2.83;;;;;;;;;;5009555;28;20270;-75
2022/01/02 08:29:31;;;;;;;4.73;2.63;;;;;;;;;;5009724;28;20280;-74
2022/01/02 08:31:58;;;;;;;6.13;2.60;;;;;;;;;;5010025;28;20563;-74
2022/01/02 08:34:25;;;;;;;5.50;2.93;;;;;;;;;;5011814;28;20238;-74
2022/01/02 08:36:53;;;;;;;5.20;3.27;;;;;;;;;;5009654;28;20215;-74
2022/01/02 08:39:21;;;;;;;4.40;2.93;;;;;;;;;;5011619;28;20214;-74
2022/01/02 08:41:47;;;;;;;4.37;2.90;;;;;;;;;;5010999;28;20235;-73
2022/01/02 08:44:14;;;;;;;5.47;2.97;;;;;;;;;;5010973;28;20239;-74
2022/01/02 08:46:40;;;;;;;4.83;3.00;;;;;;;;;;5010802;28;20235;-73
2022/01/02 08:49:06;;;;;;;5.33;3.07;;;;;;;;;;5009877;28;20584;-74
2022/01/02 08:51:33;;;;;;;5.63;3.30;;;;;;;;;;5010387;28;20237;-74
2022/01/02 08:54:01;;;;;;;4.03;2.87;;;;;;;;;;5010465;28;20238;-74
2022/01/02 08:56:27;;;;;;;4.53;2.67;;;;;;;;;;5011764;28;20231;-74
2022/01/02 08:58:54;;;;;;;8.53;3.40;;;;;;;;;;5010609;28;20261;-73
2022/01/02 09:01:20;;;;;;;4.57;3.00;;;;;;;;;;5009591;28;20230;-74
2022/01/02 09:03:48;;;;;;;3.77;3.30;;;;;;;;;;5011791;28;20633;-74
2022/01/02 09:06:14;;;;;;;4.30;3.00;;;;;;;;;;5008811;28;20239;-74
2022/01/02 09:08:41;;;;;;;5.70;3.17;;;;;;;;;;5010869;28;20693;-74
2022/01/02 09:11:09;;;;;;;6.27;3.40;;;;;;;;;;5010267;28;20226;-74
2022/01/02 09:13:36;;;;;;;6.50;3.47;;;;;;;;;;5009349;28;20212;-74
2022/01/02 09:16:03;;;;;;;5.93;3.13;;;;;;;;;;5010428;28;20211;-74
2022/01/02 09:18:29;;;;;;;6.30;3.50;;;;;;;;;;5009203;28;20269;-74
2022/01/02 09:20:56;;;;;;;8.33;3.60;;;;;;;;;;5008057;28;20869;-74
2022/01/02 09:23:23;;;;;;;9.13;4.50;;;;;;;;;;5007052;28;20301;-74
2022/01/02 09:25:49;;;;;;;8.27;3.83;;;;;;;;;;5008678;28;20545;-74
2022/01/02 09:28:17;;;;;;;5.03;3.57;;;;;;;;;;5007993;28;20787;-74
2022/01/02 09:30:43;;;;;;;6.60;3.93;;;;;;;;;;5008209;28;20223;-74
2022/01/02 09:33:10;;;;;;;5.47;3.00;;;;;;;;;;5008866;28;20231;-74
2022/01/02 09:35:38;;;;;;;8.17;3.60;;;;;;;;;;5009233;28;20215;-74
2022/01/02 09:38:04;;;;;;;5.93;3.60;;;;;;;;;;5010319;28;20639;-74
2022/01/02 09:40:31;;;;;;;5.03;2.97;;;;;;;;;;5009757;28;20224;-75
2022/01/02 09:42:59;;;;;;;13.47;3.80;;;;;;;;;;5010504;28;20207;-74
2022/01/02 09:45:27;;;;;;;6.23;3.37;;;;;;;;;;5010036;28;20232;-74
2022/01/02 09:47:54;;;;;;;4.37;3.30;;;;;;;;;;5010187;28;20231;-75
2022/01/02 09:50:21;;;;;;;5.53;4.13;;;;;;;;;;5010825;28;20211;-75
2022/01/02 09:52:47;;;;;;;5.47;4.07;;;;;;;;;;5009715;28;20245;-74
2022/01/02 09:55:15;;;;;;;6.13;4.07;;;;;;;;;;5009268;28;20738;-75
2022/01/02 09:57:43;;;;;;;5.70;3.87;;;;;;;;;;5011571;28;20215;-74
2022/01/02 10:00:11;;;;;;;4.77;3.20;;;;;;;;;;5009188;28;20214;-75
2022/01/02 10:03:00;;;;;;;5.90;4.07;;;;;;;;;;5011008;28;20228;-74
2022/01/02 10:05:27;;;;;;;5.83;4.03;;;;;;;;;;5010185;28;20666;-74
2022/01/02 10:07:55;;;;;;;5.27;3.60;;;;;;;;;;5009054;28;20219;-74
2022/01/02 10:10:31;;;;;;;5.73;4.10;;;;;;;;;;5008867;28;20286;-74
2022/01/02 10:13:00;;;;;;;8.10;4.17;;;;;;;;;;5009696;28;20293;-74
2022/01/02 10:15:28;;;;;;;8.67;4.47;;;;;;;;;;5009355;28;20220;-74
2022/01/02 10:18:04;;;;;;;8.47;4.03;;;;;;;;;;5008728;28;20349;-75
2022/01/02 10:20:33;;;;;;;9.00;5.13;;;;;;;;;;5009693;28;20228;-75
2022/01/02 10:23:13;;;;;;;6.67;5.07;;;;;;;;;;5011126;28;20238;-74
2022/01/02 10:25:46;;;;;;;7.30;4.77;;;;;;;;;;5007285;28;20247;-75
2022/01/02 10:28:30;;;;;;;10.17;4.93;;;;;;;;;;5007714;28;20219;-74
2022/01/02 10:31:00;;;;;;;7.50;4.40;;;;;;;;;;5010761;28;20217;-74
2022/01/02 10:33:32;;;;;;;7.83;4.37;;;;;;;;;;5007744;28;20231;-74
2022/01/02 10:36:00;;;;;;;6.33;4.37;;;;;;;;;;5010303;28;21106;-74
2022/01/02 10:38:26;;;;;;;8.07;4.80;;;;;;;;;;5009589;28;20812;-74
2022/01/02 10:40:53;;;;;;;6.77;4.00;;;;;;;;;;5009549;28;20277;-74
2022/01/02 10:43:25;;;;;;;7.63;4.80;;;;;;;;;;5009233;28;20219;-74
2022/01/02 10:45:53;;;;;;;6.77;4.37;;;;;;;;;;5008392;28;20282;-74
2022/01/02 10:48:35;;;;;;;8.03;4.63;;;;;;;;;;5010452;28;20228;-74
2022/01/02 10:51:05;;;;;;;9.07;4.57;;;;;;;;;;5010043;28;20203;-74
2022/01/02 10:53:34;;;;;;;9.83;4.77;;;;;;;;;;5014184;28;20219;-74
2022/01/02 10:56:02;;;;;;;7.57;4.17;;;;;;;;;;5013785;28;20246;-74
2022/01/02 10:58:29;;;;;;;7.77;4.40;;;;;;;;;;5014291;28;20309;-74
2022/01/02 11:01:02;;;;;;;8.97;5.17;;;;;;;;;;5013242;28;20223;-75
2022/01/02 11:03:31;;;;;;;4.80;3.70;;;;;;;;;;5011453;28;20229;-74
2022/01/02 11:06:05;;;;;;;6.03;3.83;;;;;;;;;;5012348;28;20219;-74
2022/01/02 11:08:34;;;;;;;9.00;4.27;;;;;;;;;;5014199;28;20314;-74
2022/01/02 11:11:02;;;;;;;7.30;3.97;;;;;;;;;;5011875;28;20224;-74
2022/01/02 11:13:28;;;;;;;5.93;3.50;;;;;;;;;;5013780;28;20217;-74
2022/01/02 11:15:55;;;;;;;9.87;4.03;;;;;;;;;;5010890;28;20207;-74
2022/01/02 11:18:22;;;;;;;7.07;3.33;;;;;;;;;;5013219;28;20231;-74
2022/01/02 11:20:50;;;;;;;6.20;3.50;;;;;;;;;;5012390;28;20208;-74
2022/01/02 11:23:23;;;;;;;8.43;4.67;;;;;;;;;;5010614;28;20222;-74
2022/01/02 11:25:56;;;;;;;6.90;3.57;;;;;;;;;;5013191;28;20677;-75
2022/01/02 11:28:35;;;;;;;8.67;4.40;;;;;;;;;;5010842;28;20242;-74
2022/01/02 11:31:02;;;;;;;6.77;3.10;;;;;;;;;;5011313;28;20219;-74
2022/01/02 11:33:31;;;;;;;9.90;3.50;;;;;;;;;;5012048;28;20222;-75
2022/01/02 11:36:01;;;;;;;9.10;3.00;;;;;;;;;;5010749;28;20303;-74
2022/01/02 11:38:42;;;;;;;7.53;3.10;;;;;;;;;;5011771;28;20630;-74
2022/01/02 11:41:08;;;;;;;10.77;3.07;;;;;;;;;;5010840;28;20231;-74
2022/01/02 11:43:54;;;;;;;7.87;2.87;;;;;;;;;;5011211;28;20211;-76
2022/01/02 11:46:26;;;;;;;9.40;3.73;;;;;;;;;;5012434;28;20658;-73
2022/01/02 11:49:16;;;;;;;8.40;3.10;;;;;;;;;;5010639;28;20306;-73
2022/01/02 11:52:21;;;;;;;7.27;2.47;;;;;;;;;;5014357;28;20219;-73
2022/01/02 11:54:58;;;;;;;8.77;2.90;;;;;;;;;;5012334;28;20218;-73
2022/01/02 11:57:51;;;;;;;8.30;2.90;;;;;;;;;;5011758;28;20681;-74
2022/01/02 12:00:38;;;;;;;9.50;3.23;;;;;;;;;;5011117;28;20223;-73
2022/01/02 12:03:05;;;;;;;8.90;2.87;;;;;;;;;;5010928;28;20226;-73
2022/01/02 12:05:31;;;;;;;6.13;2.70;;;;;;;;;;5011156;28;20792;-73
2022/01/02 12:08:00;;;;;;;8.73;2.83;;;;;;;;;;5012964;28;20204;-73
2022/01/02 12:10:34;;;;;;;9.07;3.27;;;;;;;;;;5011412;28;20230;-73
2022/01/02 12:13:16;;;;;;;9.53;3.13;;;;;;;;;;5011983;28;20314;-74
2022/01/02 12:16:11;;;;;;;8.70;2.67;;;;;;;;;;5012392;28;20234;-73
2022/01/02 12:18:57;;;;;;;8.67;2.77;;;;;;;;;;5010104;28;20227;-74
2022/01/02 12:21:24;;;;;;;11.17;3.20;;;;;;;;;;5013449;28;20225;-73
2022/01/02 12:23:54;;;;;;;10.40;3.67;;;;;;;;;;5011257;28;20590;-74
2022/01/02 12:26:22;;;;;;;11.77;3.40;;;;;;;;;;5009332;28;20812;-73
2022/01/02 12:28:56;;;;;;;10.90;3.07;;;;;;;;;;5012997;28;20676;-73
2022/01/02 12:31:26;;;;;;;11.53;3.17;;;;;;;;;;5011663;28;20222;-73
2022/01/02 12:33:53;;;;;;;9.83;2.70;;;;;;;;;;5010168;28;20596;-73
2022/01/02 12:36:21;;;;;;;11.50;3.57;;;;;;;;;;5012798;28;20215;-74
2022/01/02 12:38:49;;;;;;;9.83;3.63;;;;;;;;;;5009070;28;20215;-73
2022/01/02 12:41:23;;;;;;;9.97;3.13;;;;;;;;;;5010692;28;20294;-73
2022/01/02 12:43:53;;;;;;;11.43;3.20;;;;;;;;;;5010948;28;20216;-73
2022/01/02 12:46:35;;;;;;;8.70;3.37;;;;;;;;;;5009741;28;20254;-74
2022/01/02 12:49:01;;;;;;;12.67;3.03;;;;;;;;;;5012486;28;20272;-74
2022/01/02 12:51:35;;;;;;;9.70;3.37;;;;;;;;;;5011124;28;20269;-73
2022/01/02 12:54:04;;;;;;;12.17;3.50;;;;;;;;;;5011472;28;20277;-73
2022/01/02 12:56:37;;;;;;;12.20;3.17;;;;;;;;;;5012460;28;20227;-73
2022/01/02 12:59:21;;;;;;;10.63;3.33;;;;;;;;;;5009325;28;20220;-74
2022/01/02 13:01:55;;;;;;;12.23;3.40;;;;;;;;;;5011466;28;20424;-74
2022/01/02 13:04:24;;;;;;;14.60;3.63;;;;;;;;;;5009188;28;20691;-74
2022/01/02 13:06:51;;;;;;;13.97;3.70;;;;;;;;;;5011689;28;20239;-74
2022/01/02 13:09:26;;;;;;;12.73;4.50;;;;;;;;;;5009229;28;20356;-74
2022/01/02 13:11:54;;;;;;;12.13;3.37;;;;;;;;;;5009439;28;20272;-74
2022/01/02 13:14:32;;;;;;;12.50;3.13;;;;;;;;;;5011950;28;20618;-75
2022/01/02 13:17:00;;;;;;;10.10;3.40;;;;;;;;;;5008902;28;20287;-75
2022/01/02 13:19:26;;;;;;;10.87;3.00;;;;;;;;;;5010899;28;20728;-74
2022/01/02 13:21:54;;;;;;;14.67;3.83;;;;;;;;;;5011250;28;20257;-74
2022/01/02 13:24:25;;;;;;;13.90;2.93;;;;;;;;;;5007823;28;20242;-74
2022/01/02 13:26:51;;;;;;;12.07;3.50;;;;;;;;;;5010041;28;20242;-74
2022/01/02 13:29:22;;;;;;;12.63;2.83;;;;;;;;;;5009302;28;20851;-74
2022/01/02 13:31:49;;;;;;;9.83;2.80;;;;;;;;;;5011230;28;20258;-74
2022/01/02 13:34:22;;;;;;;13.80;3.47;;;;;;;;;;5008752;28;20280;-74
2022/01/02 13:37:00;;;;;;;9.10;2.87;;;;;;;;;;5009726;28;20272;-74
2022/01/02 13:39:41;;;;;;;10.93;3.27;;;;;;;;;;5010971;28;20621;-74
2022/01/02 13:42:08;;;;;;;8.73;3.00;;;;;;;;;;5009925;28;20222;-74
2022/01/02 13:44:40;;;;;;;12.50;3.13;;;;;;;;;;5009583;28;20216;-74
2022/01/02 13:47:07;;;;;;;8.00;2.70;;;;;;;;;;5010512;28;20234;-74
2022/01/02 13:49:41;;;;;;;7.53;2.53;;;;;;;;;;5009327;28;20223;-74
2022/01/02 13:52:08;;;;;;;10.50;2.93;;;;;;;;;;5011300;28;20209;-74
2022/01/02 13:54:34;;;;;;;9.73;3.40;;;;;;;;;;5008252;28;20216;-74
2022/01/02 13:57:01;;;;;;;10.40;3.30;;;;;;;;;;5010121;28;20207;-74
2022/01/02 13:59:28;;;;;;;8.07;2.77;;;;;;;;;;5009977;28;20301;-74
2022/01/02 14:01:56;;;;;;;12.13;2.93;;;;;;;;;;5009791;28;20899;-74
2022/01/02 14:04:23;;;;;;;9.30;2.53;;;;;;;;;;5009965;28;20292;-74
2022/01/02 14:06:49;;;;;;;10.80;3.03;;;;;;;;;;5009518;28;20234;-74
2022/01/02 14:09:18;;;;;;;9.63;2.83;;;;;;;;;;5010807;28;20211;-74
2022/01/02 14:11:47;;;;;;;9.83;2.80;;;;;;;;;;5008473;28;20814;-74
2022/01/02 14:14:18;;;;;;;11.27;2.93;;;;;;;;;;5007997;28;20210;-74
2022/01/02 14:17:13;;;;;;;11.57;2.80;;;;;;;;;;5009911;28;20249;-74
2022/01/02 14:19:43;;;;;;;8.27;2.70;;;;;;;;;;5009445;28;20206;-73
2022/01/02 14:22:12;;;;;;;10.73;2.43;;;;;;;;;;5010636;28;20597;-74
2022/01/02 14:24:39;;;;;;;10.30;3.07;;;;;;;;;;5009316;28;20239;-74
2022/01/02 14:27:07;;;;;;;8.90;2.87;;;;;;;;;;5009923;28;20940;-74
2022/01/02 14:29:33;;;;;;;10.07;2.57;;;;;;;;;;5013695;28;20746;-75
2022/01/02 14:32:02;;;;;;;7.73;2.40;;;;;;;;;;5012960;28;20226;-74
2022/01/02 14:34:28;;;;;;;9.33;2.40;;;;;;;;;;5012891;28;20236;-74
2022/01/02 14:36:55;;;;;;;8.27;1.90;;;;;;;;;;5013172;28;20695;-74
2022/01/02 14:39:22;;;;;;;7.87;2.07;;;;;;;;;;5013106;28;20992;-74
2022/01/02 14:41:48;;;;;;;9.03;2.70;;;;;;;;;;5012769;28;20238;-74
2022/01/02 14:44:15;;;;;;;8.13;2.10;;;;;;;;;;5011878;28;20225;-74
2022/01/02 14:46:43;;;;;;;7.03;2.17;;;;;;;;;;5014498;28;20303;-74
2022/01/02 14:49:12;;;;;;;6.70;1.80;;;;;;;;;;5012150;28;20207;-74
2022/01/02 14:51:39;;;;;;;5.27;1.60;;;;;;;;;;5014139;28;20631;-74
2022/01/02 14:54:06;;;;;;;6.83;2.10;;;;;;;;;;5012623;28;20281;-74
2022/01/02 14:56:33;;;;;;;8.20;2.10;;;;;;;;;;5014166;28;20223;-74